createdAt,value
2023-03-19T00:00:35.971Z,12.14
2023-03-19T00:03:02.590Z,12.30
2023-03-19T00:05:29.174Z,12.19
2023-03-19T00:07:56.065Z,12.56
2023-03-19T00:10:22.585Z,12.37
2023-03-19T00:12:49.039Z,12.44
2023-03-19T00:15:16.109Z,12.57
2023-03-19T00:17:43.073Z,12.80
2023-03-19T00:20:11.724Z,12.56
2023-03-19T00:22:38.486Z,12.53
2023-03-19T00:25:05.446Z,12.26
2023-03-19T00:27:31.985Z,12.11
2023-03-19T00:30:00.945Z,12.44
2023-03-19T00:32:27.969Z,12.33
2023-03-19T00:34:54.444Z,12.05
2023-03-19T00:37:20.904Z,12.03
2023-03-19T00:39:47.668Z,12.16
2023-03-19T00:42:14.179Z,12.17
2023-03-19T00:44:40.656Z,11.94
2023-03-19T00:47:07.328Z,12.08
2023-03-19T00:49:33.856Z,11.66
2023-03-19T00:52:00.361Z,11.43
2023-03-19T00:54:27.962Z,11.46
2023-03-19T00:56:54.447Z,11.17
2023-03-19T00:59:20.971Z,11.34
2023-03-19T01:01:48.011Z,11.71
2023-03-19T01:04:15.393Z,11.66
2023-03-19T01:06:45.017Z,11.49
2023-03-19T01:09:12.128Z,11.22
2023-03-19T01:11:39.075Z,11.37
2023-03-19T01:14:06.383Z,11.14
2023-03-19T01:16:34.728Z,11.13
2023-03-19T01:19:02.464Z,11.41
2023-03-19T01:21:31.082Z,11.64
2023-03-19T01:23:58.298Z,11.39
2023-03-19T01:26:24.967Z,11.33
2023-03-19T01:28:51.386Z,11.23
2023-03-19T01:31:17.981Z,10.98
2023-03-19T01:33:44.564Z,11.18
2023-03-19T01:36:11.325Z,11.07
2023-03-19T01:38:38.022Z,11.20
2023-03-19T01:41:04.571Z,11.10
2023-03-19T01:43:32.684Z,10.96
2023-03-19T01:46:02.488Z,11.11
2023-03-19T01:48:49.044Z,11.18
2023-03-19T01:51:17.444Z,10.81
2023-03-19T01:53:47.985Z,11.01
2023-03-19T01:56:16.295Z,11.14
2023-03-19T01:58:44.707Z,11.19
2023-03-19T02:01:11.356Z,10.96
2023-03-19T02:03:39.416Z,10.82
2023-03-19T02:06:06.559Z,11.03
2023-03-19T02:08:34.012Z,10.80
2023-03-19T02:11:02.100Z,10.64
2023-03-19T02:13:28.818Z,10.55
2023-03-19T02:15:55.414Z,10.82
2023-03-19T02:18:22.185Z,10.87
2023-03-19T02:21:06.973Z,10.60
2023-03-19T02:23:48.211Z,10.84
2023-03-19T02:26:17.291Z,10.93
2023-03-19T02:28:46.494Z,10.76
2023-03-19T02:31:13.852Z,10.88
2023-03-19T02:33:40.587Z,10.58
2023-03-19T02:36:10.863Z,10.27
2023-03-19T02:38:39.129Z,10.59
2023-03-19T02:41:08.367Z,10.42
2023-03-19T02:43:37.406Z,10.66
2023-03-19T02:46:07.336Z,10.45
2023-03-19T02:48:34.957Z,10.61
2023-03-19T02:51:01.719Z,10.59
2023-03-19T02:53:28.182Z,10.61
2023-03-19T02:55:54.656Z,10.75
2023-03-19T02:58:21.227Z,10.67
2023-03-19T03:00:47.864Z,10.44
2023-03-19T03:03:14.452Z,10.29
2023-03-19T03:05:40.921Z,10.37
2023-03-19T03:08:07.399Z,10.42
2023-03-19T03:10:34.149Z,10.54
2023-03-19T03:13:01.629Z,10.59
2023-03-19T03:15:28.235Z,10.52
2023-03-19T03:17:56.428Z,10.47
2023-03-19T03:20:23.525Z,10.59
2023-03-19T03:22:50.267Z,10.50
2023-03-19T03:25:16.828Z,10.72
2023-03-19T03:27:43.410Z,10.41
2023-03-19T03:30:10.790Z,10.56
2023-03-19T03:32:38.087Z,10.38
2023-03-19T03:35:06.130Z,10.39
2023-03-19T03:37:32.721Z,10.13
2023-03-19T03:39:59.774Z,10.16
2023-03-19T03:42:26.263Z,10.33
2023-03-19T03:44:52.728Z,10.37
2023-03-19T03:47:19.177Z,10.31
2023-03-19T03:49:45.692Z,10.36
2023-03-19T03:52:12.410Z,10.16
2023-03-19T03:54:39.052Z,9.95
2023-03-19T03:57:06.134Z,9.83
2023-03-19T03:59:32.604Z,9.99
2023-03-19T04:01:59.145Z,10.04
2023-03-19T04:04:26.601Z,10.12
2023-03-19T04:06:53.105Z,10.29
2023-03-19T04:09:19.620Z,10.11
2023-03-19T04:11:46.161Z,10.24
2023-03-19T04:14:13.119Z,10.05
2023-03-19T04:16:39.992Z,10.14
2023-03-19T04:19:07.718Z,10.10
2023-03-19T04:21:34.180Z,10.06
2023-03-19T04:24:02.203Z,10.18
2023-03-19T04:26:28.766Z,10.21
2023-03-19T04:28:55.216Z,10.06
2023-03-19T04:31:22.164Z,9.99
2023-03-19T04:33:49.291Z,9.88
2023-03-19T04:36:17.630Z,9.83
2023-03-19T04:38:44.109Z,9.80
2023-03-19T04:41:10.925Z,9.51
2023-03-19T04:43:37.413Z,9.60
2023-03-19T04:46:04.028Z,9.84
2023-03-19T04:48:30.646Z,9.85
2023-03-19T04:50:57.409Z,9.83
2023-03-19T04:53:25.664Z,9.86
2023-03-19T04:55:52.242Z,10.11
2023-03-19T04:58:19.011Z,10.02
2023-03-19T05:00:47.526Z,9.88
2023-03-19T05:03:15.217Z,10.06
2023-03-19T05:05:41.778Z,10.01
2023-03-19T05:08:09.393Z,10.13
2023-03-19T05:10:36.677Z,9.86
2023-03-19T05:13:03.636Z,9.95
2023-03-19T05:15:30.276Z,10.06
2023-03-19T05:17:56.818Z,10.03
2023-03-19T05:20:23.828Z,9.87
2023-03-19T05:22:52.395Z,9.99
2023-03-19T05:25:19.505Z,10.35
2023-03-19T05:27:46.226Z,10.52
2023-03-19T05:30:13.047Z,10.20
2023-03-19T05:32:40.761Z,10.00
2023-03-19T05:35:07.731Z,9.97
2023-03-19T05:37:34.250Z,10.04
2023-03-19T05:40:00.850Z,10.07
2023-03-19T05:42:27.306Z,10.36
2023-03-19T05:44:53.754Z,10.55
2023-03-19T05:47:20.231Z,10.61
2023-03-19T05:49:47.289Z,10.77
2023-03-19T05:52:13.934Z,10.93
2023-03-19T05:54:41.397Z,10.64
2023-03-19T05:57:08.128Z,10.81
2023-03-19T05:59:34.834Z,10.47
2023-03-19T06:02:01.737Z,10.75
2023-03-19T06:04:28.247Z,10.81
2023-03-19T06:06:54.714Z,11.23
2023-03-19T06:09:21.168Z,11.33
2023-03-19T06:11:47.659Z,11.46
2023-03-19T06:14:14.212Z,11.52
2023-03-19T06:16:40.904Z,11.45
2023-03-19T06:19:07.400Z,11.53
2023-03-19T06:21:33.869Z,11.50
2023-03-19T06:24:00.512Z,11.51
2023-03-19T06:26:27.498Z,11.48
2023-03-19T06:28:54.403Z,11.46
2023-03-19T06:31:21.386Z,11.53
2023-03-19T06:33:49.120Z,11.61
2023-03-19T06:36:15.660Z,11.56
2023-03-19T06:38:42.134Z,11.51
2023-03-19T06:41:08.785Z,11.51
2023-03-19T06:43:37.338Z,11.52
2023-03-19T06:46:05.003Z,11.81
2023-03-19T06:48:31.716Z,11.79
2023-03-19T06:50:58.265Z,12.00
2023-03-19T06:53:24.990Z,12.20
2023-03-19T06:55:51.463Z,12.17
2023-03-19T06:58:17.964Z,12.24
2023-03-19T07:00:44.586Z,12.34
2023-03-19T07:03:11.501Z,12.33
2023-03-19T07:05:38.031Z,12.41
2023-03-19T07:08:11.611Z,12.47
2023-03-19T07:10:39.364Z,12.45
2023-03-19T07:13:06.343Z,12.85
2023-03-19T07:15:33.148Z,12.40
2023-03-19T07:17:59.603Z,12.43
2023-03-19T07:20:26.190Z,12.67
2023-03-19T07:22:52.995Z,12.85
2023-03-19T07:25:19.552Z,13.12
2023-03-19T07:27:46.191Z,13.31
2023-03-19T07:30:13.676Z,13.45
2023-03-19T07:32:40.296Z,13.61
2023-03-19T07:35:08.056Z,14.25
2023-03-19T07:37:34.536Z,13.67
2023-03-19T07:40:01.061Z,13.62
2023-03-19T07:42:27.507Z,13.71
2023-03-19T07:44:53.959Z,13.83
2023-03-19T07:47:29.072Z,13.89
2023-03-19T07:49:56.692Z,14.43
2023-03-19T07:52:23.881Z,14.28
2023-03-19T07:54:50.683Z,13.84
2023-03-19T07:57:17.160Z,13.45
2023-03-19T07:59:43.626Z,13.39
2023-03-19T08:02:13.367Z,13.59
2023-03-19T08:04:40.550Z,13.56
2023-03-19T08:07:10.334Z,13.56
2023-03-19T08:09:37.601Z,14.05
2023-03-19T08:12:04.406Z,14.79
2023-03-19T08:14:31.086Z,15.12
2023-03-19T08:16:57.627Z,14.94
2023-03-19T08:19:24.194Z,15.18
2023-03-19T08:21:51.192Z,15.25
2023-03-19T08:24:18.761Z,15.28
2023-03-19T08:26:45.459Z,14.63
2023-03-19T08:29:12.325Z,15.18
2023-03-19T08:31:38.900Z,15.00
2023-03-19T08:34:10.673Z,14.62
2023-03-19T08:36:37.617Z,15.17
2023-03-19T08:39:04.313Z,14.84
2023-03-19T08:41:31.318Z,15.14
2023-03-19T08:43:57.800Z,15.05
2023-03-19T08:46:24.483Z,14.90
2023-03-19T08:48:51.058Z,15.69
2023-03-19T08:51:17.513Z,16.05
2023-03-19T08:53:43.974Z,15.91
2023-03-19T08:56:11.243Z,16.04
2023-03-19T08:58:38.117Z,16.13
2023-03-19T09:01:07.164Z,15.99
2023-03-19T09:03:33.698Z,16.66
2023-03-19T09:06:01.817Z,16.69
2023-03-19T09:08:29.336Z,17.71
2023-03-19T09:10:56.130Z,17.08
2023-03-19T09:13:23.379Z,17.14
2023-03-19T09:15:50.723Z,16.63
2023-03-19T09:18:17.599Z,16.66
2023-03-19T09:20:44.030Z,17.11
2023-03-19T09:23:10.493Z,17.21
2023-03-19T09:25:37.064Z,17.08
2023-03-19T09:28:03.710Z,17.71
2023-03-19T09:30:30.243Z,17.60
2023-03-19T09:32:57.026Z,18.19
2023-03-19T09:35:24.015Z,18.14
2023-03-19T09:37:51.986Z,18.80
2023-03-19T09:40:33.544Z,19.14
2023-03-19T09:43:18.657Z,18.87
2023-03-19T09:45:46.773Z,18.09
2023-03-19T09:48:19.742Z,18.52
2023-03-19T09:50:48.888Z,18.56
2023-03-19T09:53:18.356Z,18.96
2023-03-19T09:55:52.754Z,18.98
2023-03-19T09:58:26.251Z,18.76
2023-03-19T10:00:55.872Z,18.67
2023-03-19T10:03:35.357Z,18.51
2023-03-19T10:06:25.682Z,18.30
2023-03-19T10:09:01.053Z,18.13
2023-03-19T10:11:38.089Z,18.27
2023-03-19T10:14:42.539Z,18.81
2023-03-19T10:17:17.861Z,18.68
2023-03-19T10:19:55.810Z,18.43
2023-03-19T10:22:27.156Z,18.14
2023-03-19T10:24:55.251Z,17.77
2023-03-19T10:27:23.722Z,17.80
2023-03-19T10:29:50.198Z,17.97
2023-03-19T10:32:45.376Z,17.57
2023-03-19T10:35:20.571Z,17.16
2023-03-19T10:37:48.768Z,17.97
2023-03-19T10:40:21.895Z,17.76
2023-03-19T10:43:04.500Z,17.58
2023-03-19T10:45:38.975Z,17.71
2023-03-19T10:48:06.513Z,17.79
2023-03-19T10:50:36.770Z,17.65
2023-03-19T10:53:32.611Z,17.69
2023-03-19T10:56:18.961Z,17.17
2023-03-19T10:59:07.326Z,17.56
2023-03-19T11:01:35.970Z,17.42
2023-03-19T11:04:12.675Z,17.48
2023-03-19T11:06:39.798Z,16.75
2023-03-19T11:09:09.227Z,16.85
2023-03-19T11:11:42.614Z,16.85
2023-03-19T11:14:26.341Z,17.39
2023-03-19T11:17:18.789Z,17.57
2023-03-19T11:19:52.719Z,17.65
2023-03-19T11:22:24.759Z,17.56
2023-03-19T11:24:55.614Z,16.85
2023-03-19T11:27:34.993Z,16.57
2023-03-19T11:30:13.478Z,17.39
2023-03-19T11:33:07.094Z,17.37
2023-03-19T11:36:07.999Z,17.46
2023-03-19T11:38:57.123Z,17.53
2023-03-19T11:41:51.057Z,17.85
2023-03-19T11:44:28.299Z,18.12
2023-03-19T11:47:06.818Z,17.24
2023-03-19T11:49:50.770Z,17.77
2023-03-19T11:52:32.632Z,17.48
2023-03-19T11:55:23.660Z,17.00
2023-03-19T11:58:01.931Z,16.91
2023-03-19T12:00:31.475Z,17.44
2023-03-19T12:03:45.806Z,17.33
2023-03-19T12:07:03.410Z,17.00
2023-03-19T12:09:53.243Z,16.90
2023-03-19T12:12:49.049Z,17.57
2023-03-19T12:15:33.244Z,17.25
2023-03-19T12:18:08.928Z,17.28
2023-03-19T12:20:57.826Z,17.01
2023-03-19T12:23:57.661Z,17.02
2023-03-19T12:26:40.442Z,17.72
2023-03-19T12:29:09.828Z,17.41
2023-03-19T12:31:48.925Z,17.86
2023-03-19T12:34:38.523Z,17.06
2023-03-19T12:37:13.940Z,17.62
2023-03-19T12:39:55.854Z,17.42
2023-03-19T12:42:32.861Z,17.98
2023-03-19T12:45:01.026Z,17.92
2023-03-19T12:47:32.624Z,17.64
2023-03-19T12:50:08.552Z,17.66
2023-03-19T12:52:39.810Z,17.91
2023-03-19T12:55:12.391Z,18.09
2023-03-19T12:57:51.833Z,17.73
2023-03-19T13:00:21.678Z,17.86
2023-03-19T13:03:07.872Z,17.07
2023-03-19T13:05:41.793Z,16.41
2023-03-19T13:08:19.040Z,16.32
2023-03-19T13:10:45.568Z,16.61
2023-03-19T13:13:27.326Z,17.02
2023-03-19T13:15:58.207Z,16.78
2023-03-19T13:18:54.998Z,17.48
2023-03-19T13:21:31.530Z,17.82
2023-03-19T13:24:38.436Z,18.02
2023-03-19T13:27:07.267Z,17.23
2023-03-19T13:29:36.883Z,16.85
2023-03-19T13:32:09.080Z,16.80
2023-03-19T13:34:37.299Z,17.06
2023-03-19T13:37:18.417Z,17.10
2023-03-19T13:39:48.408Z,17.21
2023-03-19T13:42:41.328Z,17.14
2023-03-19T13:45:20.041Z,17.15
2023-03-19T13:47:49.100Z,17.49
2023-03-19T13:50:18.683Z,17.57
2023-03-19T13:52:45.097Z,16.84
2023-03-19T13:55:49.577Z,17.64
2023-03-19T13:58:43.462Z,17.54
2023-03-19T14:01:12.063Z,17.25
2023-03-19T14:03:56.685Z,17.04
2023-03-19T14:06:34.875Z,16.64
2023-03-19T14:09:01.611Z,16.95
2023-03-19T14:11:34.226Z,18.03
2023-03-19T14:14:06.432Z,17.96
2023-03-19T14:16:38.361Z,18.00
2023-03-19T14:19:11.577Z,18.45
2023-03-19T14:22:00.279Z,16.42
2023-03-19T14:27:33.095Z,16.36
2023-03-19T14:30:10.170Z,17.23
2023-03-19T14:32:41.136Z,17.07
2023-03-19T14:35:08.596Z,17.52
2023-03-19T14:37:38.039Z,16.95
2023-03-19T14:40:15.012Z,16.89
2023-03-19T14:43:06.552Z,16.77
2023-03-19T14:45:54.343Z,17.16
2023-03-19T14:48:32.803Z,16.98
2023-03-19T14:51:05.751Z,16.68
2023-03-19T14:53:44.720Z,16.68
2023-03-19T14:56:19.260Z,16.67
2023-03-19T14:58:56.899Z,16.40
2023-03-19T15:01:27.007Z,16.18
2023-03-19T15:04:00.383Z,17.20
2023-03-19T15:06:33.469Z,16.97
2023-03-19T15:09:02.308Z,16.75
2023-03-19T15:11:51.470Z,16.81
2023-03-19T15:14:39.997Z,17.02
2023-03-19T15:17:13.331Z,17.49
2023-03-19T15:19:40.298Z,17.26
2023-03-19T15:22:13.466Z,17.52
2023-03-19T15:24:39.951Z,16.99
2023-03-19T15:27:20.375Z,16.77
2023-03-19T15:29:49.279Z,16.87
2023-03-19T15:32:49.769Z,16.99
2023-03-19T15:35:23.449Z,17.04
2023-03-19T15:37:54.360Z,16.99
2023-03-19T15:40:22.712Z,16.73
2023-03-19T15:42:51.244Z,16.23
2023-03-19T15:45:24.350Z,15.95
2023-03-19T15:48:05.629Z,16.34
2023-03-19T15:50:36.452Z,16.17
2023-03-19T15:53:07.380Z,15.76
2023-03-19T15:55:35.997Z,15.52
2023-03-19T15:58:07.069Z,15.62
2023-03-19T16:00:39.770Z,15.10
2023-03-19T16:03:07.331Z,14.90
2023-03-19T16:05:34.052Z,15.13
2023-03-19T16:08:03.142Z,14.99
2023-03-19T16:10:40.951Z,15.46
2023-03-19T16:13:25.883Z,15.19
2023-03-19T16:16:03.564Z,15.15
2023-03-19T16:18:38.713Z,14.87
2023-03-19T16:21:09.237Z,14.83
2023-03-19T16:23:50.502Z,14.81
2023-03-19T16:26:25.919Z,14.67
2023-03-19T16:29:04.085Z,15.19
2023-03-19T16:31:33.981Z,15.18
2023-03-19T16:34:00.900Z,15.50
2023-03-19T16:36:33.281Z,14.91
2023-03-19T16:39:30.896Z,15.01
2023-03-19T16:42:27.533Z,14.71
2023-03-19T16:44:53.990Z,15.25
2023-03-19T16:47:22.644Z,15.24
2023-03-19T16:49:49.245Z,14.87
2023-03-19T16:52:19.916Z,14.75
2023-03-19T16:54:46.596Z,15.31
2023-03-19T16:57:14.231Z,15.67
2023-03-19T16:59:40.853Z,15.43
2023-03-19T17:02:14.223Z,15.26
2023-03-19T17:04:40.879Z,15.23
2023-03-19T17:07:08.451Z,15.27
2023-03-19T17:09:35.583Z,15.38
2023-03-19T17:12:03.310Z,15.18
2023-03-19T17:14:30.997Z,15.06
2023-03-19T17:16:58.015Z,15.29
2023-03-19T17:19:35.001Z,14.66
2023-03-19T17:22:02.318Z,14.64
2023-03-19T17:24:32.010Z,14.91
2023-03-19T17:27:00.692Z,14.68
2023-03-19T17:29:27.347Z,14.64
2023-03-19T17:31:56.708Z,14.55
2023-03-19T17:34:28.079Z,14.46
2023-03-19T17:36:57.342Z,14.30
2023-03-19T17:39:24.921Z,14.44
2023-03-19T17:41:51.646Z,14.62
2023-03-19T17:44:18.144Z,14.82
2023-03-19T17:46:46.368Z,14.68
2023-03-19T17:49:21.684Z,14.54
2023-03-19T17:51:48.256Z,14.49
2023-03-19T17:54:14.851Z,14.15
2023-03-19T17:56:43.400Z,14.02
2023-03-19T17:59:10.951Z,13.91
2023-03-19T18:01:38.274Z,13.82
2023-03-19T18:04:04.827Z,13.69
2023-03-19T18:06:34.739Z,13.77
2023-03-19T18:09:01.333Z,13.76
2023-03-19T18:11:27.785Z,13.90
2023-03-19T18:13:54.272Z,13.84
2023-03-19T18:16:31.922Z,13.49
2023-03-19T18:19:01.165Z,13.40
2023-03-19T18:21:28.371Z,13.51
2023-03-19T18:23:56.769Z,13.45
2023-03-19T18:26:24.103Z,13.30
2023-03-19T18:28:50.626Z,13.08
2023-03-19T18:31:19.298Z,12.79
2023-03-19T18:33:49.691Z,12.82
2023-03-19T18:36:18.886Z,12.30
2023-03-19T18:38:45.783Z,12.57
2023-03-19T18:41:18.626Z,12.23
2023-03-19T18:43:45.753Z,12.15
2023-03-19T18:46:14.432Z,11.51
2023-03-19T18:48:41.034Z,11.91
2023-03-19T18:51:10.716Z,11.74
2023-03-19T18:53:37.572Z,11.60
2023-03-19T18:56:07.839Z,11.81
2023-03-19T18:58:34.953Z,11.98
2023-03-19T19:01:04.372Z,11.57
2023-03-19T19:03:31.705Z,11.60
2023-03-19T19:05:58.166Z,12.18
2023-03-19T19:08:26.751Z,12.26
2023-03-19T19:10:58.987Z,12.12
2023-03-19T19:13:28.978Z,12.21
2023-03-19T19:15:55.843Z,11.70
2023-03-19T19:18:27.101Z,12.10
2023-03-19T19:20:54.038Z,11.41
2023-03-19T19:23:22.047Z,11.43
2023-03-19T19:25:51.042Z,11.29
2023-03-19T19:28:26.809Z,11.67
2023-03-19T19:30:55.579Z,11.76
2023-03-19T19:33:24.425Z,12.05
2023-03-19T19:35:52.118Z,11.41
2023-03-19T19:38:20.114Z,12.09
2023-03-19T19:40:49.933Z,11.70
2023-03-19T19:43:22.549Z,12.13
2023-03-19T19:45:51.633Z,12.17
2023-03-19T19:48:26.163Z,11.84
2023-03-19T19:50:53.757Z,12.09
2023-03-19T19:53:20.795Z,12.00
2023-03-19T19:55:47.462Z,11.39
2023-03-19T19:58:23.576Z,12.24
2023-03-19T20:01:02.266Z,12.15
2023-03-19T20:03:32.257Z,12.13
2023-03-19T20:05:59.938Z,11.53
2023-03-19T20:08:27.235Z,12.10
2023-03-19T20:10:54.439Z,11.79
2023-03-19T20:13:30.073Z,11.82
2023-03-19T20:15:58.472Z,11.73
2023-03-19T20:18:30.473Z,11.46
2023-03-19T20:20:58.186Z,11.42
2023-03-19T20:23:24.635Z,11.28
2023-03-19T20:25:51.728Z,11.84
2023-03-19T20:28:24.840Z,10.98
2023-03-19T20:30:53.984Z,11.40
2023-03-19T20:33:21.570Z,11.14
2023-03-19T20:35:48.441Z,11.32
2023-03-19T20:38:15.438Z,11.49
2023-03-19T20:40:53.569Z,10.95
2023-03-19T20:43:33.121Z,11.34
2023-03-19T20:46:02.588Z,11.36
2023-03-19T20:48:30.661Z,11.96
2023-03-19T20:50:58.341Z,12.29
2023-03-19T20:53:25.010Z,12.04
2023-03-19T20:55:52.271Z,12.02
2023-03-19T20:58:27.589Z,11.59
2023-03-19T21:00:56.437Z,11.94
2023-03-19T21:03:30.216Z,12.20
2023-03-19T21:06:02.266Z,12.10
2023-03-19T21:08:34.740Z,11.88
2023-03-19T21:11:01.809Z,12.00
2023-03-19T21:13:28.847Z,11.90
2023-03-19T21:15:55.827Z,11.76
2023-03-19T21:18:22.456Z,11.49
2023-03-19T21:20:53.900Z,11.30
2023-03-19T21:23:28.093Z,11.28
2023-03-19T21:25:54.624Z,11.23
2023-03-19T21:28:28.544Z,11.42
2023-03-19T21:30:55.051Z,11.91
2023-03-19T21:33:27.278Z,11.58
2023-03-19T21:35:54.812Z,11.77
2023-03-19T21:38:22.417Z,11.13
2023-03-19T21:40:50.519Z,11.55
2023-03-19T21:43:36.617Z,11.64
2023-03-19T21:46:17.563Z,11.66
2023-03-19T21:48:49.509Z,11.87
2023-03-19T21:51:16.620Z,11.55
2023-03-19T21:53:43.823Z,11.45
2023-03-19T21:56:22.228Z,11.55
2023-03-19T21:58:50.748Z,11.21
2023-03-19T22:01:20.688Z,11.72
2023-03-19T22:03:47.457Z,11.06
2023-03-19T22:06:14.240Z,10.79
2023-03-19T22:08:41.654Z,11.06
2023-03-19T22:11:17.645Z,10.90
2023-03-19T22:13:44.580Z,11.25
2023-03-19T22:16:23.907Z,11.50
2023-03-19T22:18:51.523Z,11.26
2023-03-19T22:21:20.335Z,10.67
2023-03-19T22:23:47.570Z,10.50
2023-03-19T22:26:29.962Z,11.06
2023-03-19T22:28:58.223Z,10.94
2023-03-19T22:31:24.920Z,11.37
2023-03-19T22:33:51.572Z,11.35
2023-03-19T22:36:18.410Z,11.13
2023-03-19T22:38:45.012Z,11.43
2023-03-19T22:41:25.184Z,11.32
2023-03-19T22:43:51.770Z,11.75
2023-03-19T22:46:18.997Z,12.16
2023-03-19T22:48:50.326Z,11.90
2023-03-19T22:51:19.112Z,12.01
2023-03-19T22:53:46.213Z,11.40
2023-03-19T22:56:14.039Z,11.16
2023-03-19T22:58:41.629Z,11.25
2023-03-19T23:01:28.913Z,10.99
2023-03-19T23:03:56.244Z,10.83
2023-03-19T23:06:30.637Z,11.25
2023-03-19T23:08:58.427Z,11.26
2023-03-19T23:11:25.617Z,10.84
2023-03-19T23:13:52.564Z,10.21
2023-03-19T23:16:23.451Z,10.22
2023-03-19T23:18:50.317Z,10.55
2023-03-19T23:21:18.331Z,10.09
2023-03-19T23:23:45.551Z,10.14
2023-03-19T23:26:25.418Z,10.36
2023-03-19T23:28:52.665Z,10.79
2023-03-19T23:31:19.982Z,10.55
2023-03-19T23:33:46.625Z,10.74
2023-03-19T23:36:13.424Z,10.11
2023-03-19T23:38:39.939Z,10.57
2023-03-19T23:41:07.322Z,10.29
2023-03-19T23:43:34.237Z,10.29
2023-03-19T23:46:01.080Z,10.42
2023-03-19T23:48:35.390Z,10.10
2023-03-19T23:51:02.408Z,10.21
2023-03-19T23:53:29.774Z,10.14
2023-03-19T23:56:03.144Z,10.17
2023-03-19T23:58:39.962Z,10.47
